• Join FlightAware (Why Join?)
  • Login
  • US Flag 
02:29PM EDT


 

Airport Tracker/Info


-or-


 

Live Flight TrackerFlight Track Log ✈ KAL824 ✈ 10-Sep-2013 ✈ ZYMD / MDG - RKSI / ICN

Flight Track Log - Related Links

Times and Time Zones

All times are in EDT time to prevent confusion due to time zone crossing. See the KAL824 flight status page for this flight to view local times or setup timezone preferences in your user account.

Time Position Orientation Groundspeed Altitude Reporting Facility
EDT Latitude Longitude Course Direction KTS MPH feet Rate Location/Type
12:49AM 44.3650 129.1680 242° Southwest 371 427 17,700  Level FlightAware
12:50AM 44.3380 129.0970 242° Southwest 368 423 18,500 600 Climbing FlightAware
12:51AM 44.3110 129.0280 241° Southwest 368 423 18,500  Level FlightAware
12:51AM 44.2860 128.9620 242° Southwest 368 423 18,500  Level FlightAware
12:52AM 44.2620 128.8970 243° Southwest 368 423 18,500  Level FlightAware
12:53AM 44.2390 128.8370 242° Southwest 368 423 18,500  Level FlightAware
12:53AM 44.2140 128.7710 242° Southwest 368 423 18,500  Level FlightAware
12:54AM 44.1890 128.7070 241° Southwest 368 423 18,500  Level FlightAware
12:56AM 44.0941 128.6716 195° South  Level Estimated
12:57AM 44.0393 128.6512 195° South  Level Estimated
12:58AM 43.9845 128.6308 195° South  Level Estimated
12:59AM 43.9297 128.6105 195° South  Level Estimated
01:00AM 43.8749 128.5902 195° South  Level Estimated
01:01AM 43.8201 128.5700 195° South  Level Estimated
01:02AM 43.7653 128.5498 195° South  Level Estimated
01:03AM 43.7105 128.5296 195° South  Level Estimated
01:04AM 43.6557 128.5095 195° South  Level Estimated
01:05AM 43.6009 128.4894 195° South  Level Estimated
01:06AM 43.5461 128.4693 195° South  Level Estimated
01:07AM 43.4913 128.4493 195° South  Level Estimated
01:08AM 43.4365 128.4294 195° South  Level Estimated
01:09AM 43.3816 128.4094 195° South  Level Estimated
01:10AM 43.3268 128.3895 195° South  Level Estimated
01:11AM 43.2720 128.3696 195° South  Level Estimated
01:12AM 43.2172 128.3498 195° South  Level Estimated
01:13AM 43.1623 128.3300 195° South  Level Estimated
01:14AM 43.1075 128.3102 195° South  Level Estimated
01:15AM 43.0526 128.2905 195° South  Level Estimated
01:16AM 42.9978 128.2708 195° South  Level Estimated
01:17AM 42.9429 128.2511 195° South  Level Estimated
01:18AM 42.8881 128.2315 195° South  Level Estimated
01:19AM 42.8332 128.2119 195° South  Level Estimated
01:20AM 42.7784 128.1923 195° South  Level Estimated
01:21AM 42.7235 128.1728 195° South  Level Estimated
01:22AM 42.6686 128.1533 195° South  Level Estimated
01:23AM 42.6138 128.1339 195° South  Level Estimated
01:24AM 42.5589 128.1145 195° South  Level Estimated
01:25AM 42.5040 128.0951 195° South  Level Estimated
01:26AM 42.4491 128.0757 195° South  Level Estimated
01:27AM 42.3951 128.0567 195° South  Level Estimated
01:28AM 42.3410 128.0377 195° South  Level Estimated
01:29AM 42.2869 128.0187 195° South  Level Estimated
01:30AM 42.2328 127.9998 195° South  Level Estimated
01:31AM 42.1787 127.9809 195° South  Level Estimated
01:32AM 42.1246 127.9620 195° South  Level Estimated
01:33AM 42.0705 127.9432 194° South  Level Estimated
01:34AM 42.0164 127.9244 194° South  Level Estimated
01:35AM 41.9623 127.9056 194° South  Level Estimated
01:36AM 41.9082 127.8868 194° South  Level Estimated
01:37AM 41.8541 127.8681 194° South  Level Estimated
01:38AM 41.8000 127.8494 194° South  Level Estimated
01:39AM 41.7459 127.8308 194° South  Level Estimated
01:40AM 41.6917 127.8122 194° South  Level Estimated
01:41AM 41.6376 127.7936 194° South  Level Estimated
01:42AM 41.5835 127.7750 194° South  Level Estimated
01:43AM 41.5294 127.7565 194° South  Level Estimated
01:44AM 41.4753 127.7380 194° South  Level Estimated
01:45AM 41.4211 127.7196 194° South  Level Estimated
01:46AM 41.3670 127.7011 194° South  Level Estimated
01:47AM 41.3128 127.6827 194° South  Level Estimated
01:48AM 41.2587 127.6644 194° South  Level Estimated
01:49AM 41.2046 127.6460 194° South  Level Estimated
01:50AM 41.1504 127.6277 194° South  Level Estimated
01:51AM 41.0963 127.6094 194° South  Level Estimated
01:52AM 41.0421 127.5912 194° South  Level Estimated
01:53AM 40.9879 127.5730 194° South  Level Estimated
01:54AM 40.9338 127.5548 194° South  Level Estimated
01:55AM 40.8796 127.5366 194° South  Level Estimated
01:56AM 40.8255 127.5185 194° South  Level Estimated
01:57AM 40.7713 127.5004 194° South  Level Estimated
01:58AM 40.7171 127.4823 194° South  Level Estimated
01:59AM 40.6629 127.4643 194° South  Level Estimated
02:00AM 40.6088 127.4463 194° South  Level Estimated
02:01AM 40.5546 127.4283 194° South  Level Estimated
02:02AM 40.5004 127.4103 194° South  Level Estimated
02:03AM 40.4462 127.3924 194° South  Level Estimated
02:04AM 40.3920 127.3745 194° South  Level Estimated
02:05AM 40.3378 127.3567 194° South  Level Estimated
02:06AM 40.2837 127.3388 194° South  Level Estimated
02:07AM 40.2295 127.3210 194° South  Level Estimated
02:08AM 40.1753 127.3032 194° South  Level Estimated
02:09AM 40.1211 127.2855 194° South  Level Estimated
02:10AM 40.0669 127.2678 194° South  Level Estimated
02:11AM 40.0126 127.2501 194° South  Level Estimated
02:12AM 39.9584 127.2324 194° South  Level Estimated
02:13AM 39.9042 127.2147 194° South  Level Estimated
02:14AM 39.8500 127.1971 194° South  Level Estimated
02:15AM 39.7958 127.1796 194° South  Level Estimated
02:16AM 39.7416 127.1620 194° South  Level Estimated
02:17AM 39.6874 127.1445 194° South  Level Estimated
02:18AM 39.6331 127.1270 194° South  Level Estimated
02:19AM 39.5789 127.1095 194° South  Level Estimated
02:20AM 39.5247 127.0920 194° South  Level Estimated
02:21AM 39.4704 127.0746 194° South  Level Estimated
02:22AM 39.4162 127.0572 194° South  Level Estimated
02:23AM 39.3620 127.0399 194° South  Level Estimated
02:24AM 39.3077 127.0225 194° South  Level Estimated
02:25AM 39.2535 127.0052 194° South  Level Estimated
02:26AM 39.1992 126.9879 194° South  Level Estimated
02:27AM 39.1450 126.9707 194° South  Level Estimated
02:28AM 39.0907 126.9534 194° South  Level Estimated
02:29AM 39.0365 126.9362 194° South  Level Estimated
02:30AM 38.9822 126.9190 194° South  Level Estimated
02:31AM 38.9280 126.9019 194° South  Level Estimated
02:32AM 38.8737 126.8848 194° South  Level Estimated
02:33AM 38.8194 126.8677 194° South  Level Estimated
02:34AM 38.7652 126.8506 194° South  Level Estimated
02:35AM 38.7109 126.8335 194° South  Level Estimated
02:36AM 38.6566 126.8165 194° South  Level Estimated
02:37AM 38.6024 126.7995 194° South  Level Estimated
02:38AM 38.5481 126.7825 194° South  Level Estimated
02:39AM 38.4938 126.7656 194° South  Level Estimated
02:40AM 38.4395 126.7487 194° South  Level Estimated
02:41AM 38.3852 126.7318 194° South  Level Estimated
02:42AM 38.3310 126.7149 194° South  Level Estimated
02:43AM 38.2767 126.6981 194° South  Level Estimated
02:44AM 38.2224 126.6813 194° South  Level Estimated
02:45AM 38.1681 126.6645 194° South  Level Estimated
02:46AM 38.1138 126.6477 194° South  Level Estimated
02:47AM 38.0595 126.6310 194° South  Level Estimated
02:48AM 38.0052 126.6142 194° South  Level Estimated
02:49AM 37.9509 126.5975 194° South  Level Estimated
02:50AM 37.8966 126.5809 194° South  Level Estimated
02:51AM 37.8423 126.5642 194° South  Level Estimated
02:52AM 37.7880 126.5476 194° South  Level Estimated
02:53AM 37.7337 126.5310 194° South  Level Estimated
02:54AM 37.6793 126.5144 194° South  Level Estimated
02:55AM 37.6250 126.4979 194° South  Level Estimated
02:56AM 37.5707 126.4814 194° South  Level Estimated
02:57AM 37.5164 126.4649 194° South  Level Estimated
02:58AM 37.4691 126.4505 194° South  Level Estimated
02:59AM 37.4691 126.4505 335° Northwest  Level Estimated
03:00AM 37.4691 126.4505 335° Northwest  Level Estimated
03:01AM 37.4691 126.4505 335° Northwest  Level Estimated
03:02AM 37.4691 126.4505 335° Northwest  Level Estimated
03:03AM 37.4691 126.4505 335° Northwest  Level Estimated
03:04AM 37.4691 126.4505 335° Northwest  Level Estimated
03:05AM 37.4691 126.4505 335° Northwest  Level Estimated
03:06AM 37.4691 126.4505 335° Northwest  Level Estimated
03:07AM 37.4691 126.4505 335° Northwest  Level Estimated
03:08AM 37.4691 126.4505 335° Northwest  Level Estimated
03:09AM 37.4691 126.4505 335° Northwest  Level Estimated
03:10AM 37.4691 126.4505 335° Northwest  Level Estimated
03:11AM 37.4691 126.4505 335° Northwest  Level Estimated
03:12AM 37.4691 126.4505 335° Northwest  Level Estimated
03:13AM 37.4691 126.4505 335° Northwest  Level Estimated
03:14AM 37.4691 126.4505 335° Northwest  Level Estimated
03:15AM 37.4691 126.4505 335° Northwest  Level Estimated
03:16AM 37.4691 126.4505 335° Northwest  Level Estimated